Pittsburgh, Pennsylvania
Current Conditions -  °F | °C
As of 6:56 AM on Thursday 27 Nov 2014 (Local Time) from KAGC Reporting Station
Haze Haze  
Wind Chill: 32°   Ceiling: 1000
Heat Index: 32°   Visibility: 3mi
Dew Point: 28°   Wind: 3mph
Humidity: 85%   Direction: 300°WNW
Pressure: 30.01"   Gusts: NA
Location:  40.44°N, 80°W
Report Text: KAGC 271156Z 30003KT 3SM BR SCT007 BKN010 OVC020 00/M02 A3001 RMK AO2 CIG 009V013 T00001022
Loading
Personal Weather Stations






























Interactive Weather Map New forecast layout! Learn more

10-Day Weather Forecast

Advertisements
Track Severe Weather on mobile